Time;durP1;ratioP1;P1;durP2;ratioP2;P2;SDS_P1;SDS_P2;PMS_P1;PMS_P2;Temp;Humidity;BMP_temperature;BMP_pressure;BME280_temperature;BME280_humidity;BME280_pressure;Samples;Min_cycle;Max_cycle;Signal;HPM_P1;HPM_P2
2021/04/03 00:00:19;;;;;;;82.72;19.02;;;;;;;5.31;65.01;100491.48;1690133;82;21230;-75
2021/04/03 00:02:47;;;;;;;44.55;10.63;;;;;;;5.31;65.08;100486.70;1696825;84;21236;-75
2021/04/03 00:05:14;;;;;;;30.77;9.93;;;;;;;5.29;65.16;100481.54;1694478;84;21147;-75
2021/04/03 00:07:41;;;;;;;23.15;8.68;;;;;;;5.30;65.24;100483.22;1715657;82;22057;-75
2021/04/03 00:10:21;;;;;;;48.00;12.60;;;;;;;5.30;65.32;100485.03;1790608;80;21155;-75
2021/04/03 00:12:47;;;;;;;;;;;;;;;5.29;65.40;100478.89;1748703;79;21175;-75
2021/04/03 00:15:14;;;;;;;44.50;12.65;;;;;;;5.29;65.49;100489.47;1747732;81;20920;-75
2021/04/03 00:17:40;;;;;;;28.75;9.13;;;;;;;5.27;65.54;100478.20;1756569;81;21662;-75
2021/04/03 00:20:10;;;;;;;29.27;9.68;;;;;;;5.26;65.61;100479.17;1742020;81;21670;-75
2021/04/03 00:22:36;;;;;;;23.12;8.63;;;;;;;5.25;65.66;100476.64;1756598;81;21159;-75
2021/04/03 00:25:04;;;;;;;24.05;9.75;;;;;;;5.24;65.71;100479.77;1756113;81;21201;-75
2021/04/03 00:27:30;;;;;;;27.35;10.00;;;;;;;5.21;65.79;100477.40;1756448;81;21207;-75
2021/04/03 00:29:56;;;;;;;24.90;9.55;;;;;;;5.18;65.85;100478.99;1747464;81;21204;-75
2021/04/03 00:32:23;;;;;;;27.17;10.82;;;;;;;5.17;65.92;100478.66;1750668;81;21206;-75
2021/04/03 00:34:49;;;;;;;32.55;11.50;;;;;;;5.14;65.99;100476.26;1740086;81;21140;-75
2021/04/03 00:37:16;;;;;;;22.42;8.03;;;;;;;5.14;66.05;100479.41;1757166;81;21661;-75
2021/04/03 00:39:42;;;;;;;26.52;9.05;;;;;;;5.14;66.11;100479.41;1753442;81;21652;-75
2021/04/03 00:42:18;;;;;;;26.25;9.88;;;;;;;5.12;66.17;100475.56;1740109;81;21182;-75
2021/04/03 00:44:46;;;;;;;21.27;8.00;;;;;;;5.11;66.25;100475.20;1734991;81;21941;-75
2021/04/03 00:47:14;;;;;;;19.30;7.25;;;;;;;5.09;66.35;100482.45;1729480;81;21197;-75
2021/04/03 00:49:45;;;;;;;15.23;5.62;;;;;;;5.09;66.48;100481.13;1729344;82;21189;-75
2021/04/03 00:52:13;;;;;;;19.17;7.22;;;;;;;5.08;66.54;100471.52;1729394;82;21129;-75
2021/04/03 00:54:42;;;;;;;12.53;5.17;;;;;;;5.07;66.58;100477.76;1742918;81;21127;-75
2021/04/03 00:57:09;;;;;;;22.70;9.65;;;;;;;5.07;66.62;100471.15;1760405;81;21170;-75
2021/04/03 00:59:36;;;;;;;9.28;4.50;;;;;;;5.06;66.64;100471.30;1760375;81;21540;-75
2021/04/03 01:02:04;;;;;;;12.37;4.70;;;;;;;5.04;66.67;100472.74;1760247;81;21134;-75
2021/04/03 01:04:30;;;;;;;12.93;5.28;;;;;;;5.01;66.71;100472.53;1760316;81;21155;-75
2021/04/03 01:06:57;;;;;;;12.37;5.83;;;;;;;4.98;66.74;100474.61;1734377;81;21540;-75
2021/04/03 01:09:23;;;;;;;10.93;4.55;;;;;;;4.94;66.78;100477.16;1760186;81;21203;-75
2021/04/03 01:11:58;;;;;;;10.23;3.92;;;;;;;4.89;66.82;100467.48;1760130;81;21170;-74
2021/04/03 01:14:30;;;;;;;9.05;4.45;;;;;;;4.87;66.86;100466.76;1759813;81;21556;-76
2021/04/03 01:17:20;;;;;;;10.50;3.87;;;;;;;4.86;66.91;100465.08;1759930;81;21146;-75
2021/04/03 01:20:22;;;;;;;10.25;4.90;;;;;;;4.85;66.96;100467.39;1731867;81;21126;-75
2021/04/03 01:23:36;;;;;;;7.78;4.28;;;;;;;4.85;67.03;100472.20;1760126;81;22161;-75
2021/04/03 01:26:16;;;;;;;8.63;4.00;;;;;;;4.86;67.12;100473.00;1759469;81;21166;-75
2021/04/03 01:29:08;;;;;;;9.80;5.15;;;;;;;4.83;67.22;100475.91;1760039;81;21143;-76
2021/04/03 01:31:37;;;;;;;8.08;4.95;;;;;;;4.83;67.26;100473.27;1760109;81;21095;-75
2021/04/03 01:34:03;;;;;;;9.58;4.83;;;;;;;4.82;67.33;100473.75;1760242;81;21568;-75
2021/04/03 01:36:31;;;;;;;13.85;6.20;;;;;;;4.81;67.36;100482.66;1760092;81;22041;-75
2021/04/03 01:39:05;;;;;;;11.40;5.67;;;;;;;4.81;67.40;100477.86;1734134;81;21655;-75
2021/04/03 01:41:32;;;;;;;13.48;5.87;;;;;;;4.79;67.45;100485.06;1760228;81;21585;-75
2021/04/03 01:43:59;;;;;;;10.70;5.30;;;;;;;4.74;67.47;100480.67;1734228;81;21190;-75
2021/04/03 01:46:28;;;;;;;14.47;5.45;;;;;;;4.69;67.54;100477.57;1734615;81;21048;-75
2021/04/03 01:48:55;;;;;;;11.15;4.92;;;;;;;4.65;67.59;100482.76;1752223;81;21261;-75
2021/04/03 01:51:21;;;;;;;9.85;5.35;;;;;;;4.65;67.66;100474.83;1749669;81;21205;-75
2021/04/03 01:53:47;;;;;;;13.70;5.83;;;;;;;4.60;67.74;100475.73;1748793;82;21164;-75
2021/04/03 01:56:15;;;;;;;11.48;5.20;;;;;;;4.58;67.81;100479.80;1738748;82;21140;-75
2021/04/03 01:58:41;;;;;;;16.37;5.58;;;;;;;4.58;67.90;100487.72;1720264;81;21597;-75
2021/04/03 02:01:09;;;;;;;12.98;4.90;;;;;;;4.58;68.00;100478.48;1772570;81;21260;-74
2021/04/03 02:03:35;;;;;;;8.30;5.12;;;;;;;4.53;68.11;100476.25;1771986;81;21589;-75
2021/04/03 02:06:04;;;;;;;15.05;7.47;;;;;;;4.48;68.23;100482.39;1772101;81;21140;-75
2021/04/03 02:08:30;;;;;;;16.15;6.12;;;;;;;4.41;68.31;100479.91;1772293;81;21156;-75
2021/04/03 02:11:01;;;;;;;12.70;5.83;;;;;;;4.36;68.45;100480.77;1772334;81;21121;-75
2021/04/03 02:13:29;;;;;;;15.58;6.72;;;;;;;4.31;68.54;100483.45;1770087;81;22122;-75
2021/04/03 02:15:58;;;;;;;15.20;6.37;;;;;;;4.24;68.65;100485.77;1748747;80;21171;-75
2021/04/03 02:18:24;;;;;;;16.87;6.53;;;;;;;4.17;68.74;100482.44;1760753;80;21132;-75
2021/04/03 02:20:51;;;;;;;13.68;6.60;;;;;;;4.14;68.84;100486.17;1748889;82;21166;-75
2021/04/03 02:23:17;;;;;;;14.23;6.55;;;;;;;4.08;68.95;100488.01;1786014;80;21131;-75
2021/04/03 02:25:43;;;;;;;10.58;5.45;;;;;;;4.05;69.05;100490.06;1749030;82;22100;-75
2021/04/03 02:28:09;;;;;;;16.30;6.62;;;;;;;4.05;69.16;100493.51;1749778;81;21224;-75
2021/04/03 02:30:35;;;;;;;19.27;7.30;;;;;;;4.07;69.25;100498.20;1772548;81;21137;-75
2021/04/03 02:33:02;;;;;;;15.53;6.85;;;;;;;4.10;69.36;100497.10;1756240;81;21145;-75
2021/04/03 02:35:31;;;;;;;18.23;6.22;;;;;;;4.11;69.48;100498.30;1766344;81;21176;-75
2021/04/03 02:38:00;;;;;;;11.80;5.67;;;;;;;4.12;69.58;100496.00;1766459;81;21200;-75
2021/04/03 02:40:30;;;;;;;16.17;7.15;;;;;;;4.13;69.70;100500.33;1766496;80;21145;-75
2021/04/03 02:43:14;;;;;;;17.60;7.70;;;;;;;4.12;69.83;100501.28;1736755;81;21157;-75
2021/04/03 02:45:51;;;;;;;18.07;7.87;;;;;;;4.10;69.95;100497.10;1766506;81;21160;-75
2021/04/03 02:48:18;;;;;;;21.17;8.85;;;;;;;4.05;70.07;100499.30;1766849;81;21200;-74
2021/04/03 02:50:48;;;;;;;21.50;7.97;;;;;;;3.98;70.19;100502.41;1766508;81;21193;-75
2021/04/03 02:53:14;;;;;;;13.40;7.33;;;;;;;3.95;70.28;100508.42;1766378;81;21145;-75
2021/04/03 02:55:47;;;;;;;18.92;9.05;;;;;;;3.90;70.41;100506.66;1785693;80;21191;-75
2021/04/03 02:58:18;;;;;;;20.75;7.97;;;;;;;3.86;70.48;100507.86;1785632;80;21187;-75
2021/04/03 03:00:53;;;;;;;19.95;8.63;;;;;;;3.82;70.57;100509.07;1785650;80;21176;-75
2021/04/03 03:03:21;;;;;;;21.07;8.18;;;;;;;3.78;70.66;100507.64;1754011;80;21620;-75
2021/04/03 03:05:48;;;;;;;15.45;7.40;;;;;;;3.73;70.78;100501.91;1785600;80;21632;-75
2021/04/03 03:08:15;;;;;;;15.65;7.08;;;;;;;3.67;70.89;100508.50;1785645;80;21108;-75
2021/04/03 03:10:42;;;;;;;13.72;7.22;;;;;;;3.65;70.99;100512.23;1785578;80;21191;-75
2021/04/03 03:13:08;;;;;;;16.93;7.83;;;;;;;3.62;71.12;100517.75;1785624;80;22244;-75
2021/04/03 03:15:35;;;;;;;17.30;8.63;;;;;;;3.60;71.24;100528.89;1785476;80;22068;-75
2021/04/03 03:18:01;;;;;;;20.75;8.65;;;;;;;3.58;71.34;100526.87;1785575;80;21203;-75
2021/04/03 03:20:28;;;;;;;18.17;8.20;;;;;;;3.57;71.44;100528.66;1752733;80;21144;-75
2021/04/03 03:22:55;;;;;;;18.55;8.30;;;;;;;3.57;71.52;100524.70;1751052;81;21132;-75
2021/04/03 03:25:22;;;;;;;15.98;9.05;;;;;;;3.58;71.63;100530.82;1750896;81;21739;-75
2021/04/03 03:27:48;;;;;;;16.02;7.22;;;;;;;3.58;71.69;100529.50;1785491;80;22168;-75
2021/04/03 03:30:16;;;;;;;19.60;8.90;;;;;;;3.56;71.78;100528.77;1785698;80;21143;-75
2021/04/03 03:32:43;;;;;;;22.37;8.38;;;;;;;3.56;71.87;100532.72;1785354;80;21148;-75
2021/04/03 03:35:11;;;;;;;17.40;8.03;;;;;;;3.56;71.94;100534.88;1785629;80;21219;-75
2021/04/03 03:37:38;;;;;;;15.83;7.17;;;;;;;3.57;72.01;100539.69;1753040;80;21156;-75
2021/04/03 03:40:05;;;;;;;16.42;6.60;;;;;;;3.55;72.12;100542.94;1785359;80;21852;-75
2021/04/03 03:42:31;;;;;;;18.10;7.58;;;;;;;3.51;72.20;100543.18;1785410;79;21140;-75
2021/04/03 03:44:57;;;;;;;18.82;7.17;;;;;;;3.45;72.32;100543.64;1785727;80;21148;-75
2021/04/03 03:47:24;;;;;;;19.90;8.85;;;;;;;3.41;72.41;100552.75;1749304;81;21180;-75
2021/04/03 03:49:50;;;;;;;17.75;8.13;;;;;;;3.38;72.52;100548.20;1785190;80;21210;-75
2021/04/03 03:52:17;;;;;;;18.62;8.30;;;;;;;3.32;72.63;100553.48;1790442;79;22708;-75
2021/04/03 03:54:45;;;;;;;16.62;9.43;;;;;;;3.29;72.72;100553.72;1791266;80;21151;-75
2021/04/03 03:57:12;;;;;;;21.70;9.98;;;;;;;3.24;72.81;100551.91;1791518;80;21203;-75
2021/04/03 03:59:38;;;;;;;22.73;10.03;;;;;;;3.20;72.88;100559.69;1791396;80;21162;-74
2021/04/03 04:02:06;;;;;;;20.75;9.28;;;;;;;3.16;72.93;100553.02;1791467;80;21573;-75
2021/04/03 04:04:32;;;;;;;17.02;9.58;;;;;;;3.13;73.01;100555.86;1791412;80;21438;-75
2021/04/03 04:06:58;;;;;;;18.37;7.62;;;;;;;3.10;73.06;100564.00;1791111;80;21179;-75
2021/04/03 04:09:26;;;;;;;18.42;7.50;;;;;;;3.08;73.14;100565.09;1791370;80;21525;-75
2021/04/03 04:11:52;;;;;;;21.37;9.80;;;;;;;3.06;73.20;100570.49;1792463;80;21545;-75
2021/04/03 04:14:18;;;;;;;22.98;10.55;;;;;;;3.04;73.27;100581.61;1759447;81;22342;-74
2021/04/03 04:16:45;;;;;;;17.60;8.48;;;;;;;3.03;73.34;100577.28;1727675;83;22096;-75
2021/04/03 04:19:11;;;;;;;34.27;15.78;;;;;;;3.03;73.43;100582.55;1759435;81;21170;-74
2021/04/03 04:21:37;;;;;;;18.75;9.38;;;;;;;3.00;73.53;100582.79;1727756;83;21211;-75
2021/04/03 04:24:04;;;;;;;15.98;8.53;;;;;;;2.99;73.61;100580.63;1759505;80;21138;-75
2021/04/03 04:26:31;;;;;;;33.15;13.93;;;;;;;2.99;73.69;100585.09;1726282;82;21206;-75
2021/04/03 04:28:57;;;;;;;24.95;10.25;;;;;;;2.97;73.75;100584.34;1759595;81;21265;-75
2021/04/03 04:31:26;;;;;;;19.67;9.20;;;;;;;2.96;73.82;100581.34;1727776;83;21174;-74
2021/04/03 04:33:52;;;;;;;18.12;9.30;;;;;;;2.93;73.89;100588.16;1759664;81;21143;-75
2021/04/03 04:36:19;;;;;;;26.23;10.38;;;;;;;2.90;73.95;100579.19;1726258;83;21142;-75
2021/04/03 04:38:45;;;;;;;22.80;9.53;;;;;;;2.86;73.99;100592.22;1757398;81;21561;-75
2021/04/03 04:41:11;;;;;;;17.82;9.10;;;;;;;2.84;74.03;100592.36;1769404;81;21238;-75
2021/04/03 04:43:38;;;;;;;17.48;9.03;;;;;;;2.84;74.08;100578.34;1769715;81;21189;-74
2021/04/03 04:46:04;;;;;;;18.45;8.48;;;;;;;2.84;74.11;100596.78;1769580;81;21109;-74
2021/04/03 04:48:30;;;;;;;20.65;8.23;;;;;;;2.84;74.16;100591.51;1769689;81;21625;-74
2021/04/03 04:50:56;;;;;;;28.40;9.90;;;;;;;2.81;74.26;100591.75;1769618;81;21232;-76
2021/04/03 04:53:23;;;;;;;19.92;9.35;;;;;;;2.81;74.31;100595.70;1769779;81;21442;-73
2021/04/03 04:55:49;;;;;;;23.42;10.13;;;;;;;2.80;74.38;100595.33;1769529;81;21629;-76
2021/04/03 04:58:16;;;;;;;21.97;10.23;;;;;;;2.80;74.47;100597.95;1769832;81;21148;-73
2021/04/03 05:00:42;;;;;;;22.17;10.45;;;;;;;2.78;74.52;100607.78;1769866;81;21145;-73
2021/04/03 05:03:09;;;;;;;26.57;10.80;;;;;;;2.73;74.59;100607.27;1769605;81;21649;-73
2021/04/03 05:05:35;;;;;;;25.50;11.38;;;;;;;2.69;74.67;100607.13;1767913;81;22090;-73
2021/04/03 05:08:01;;;;;;;27.80;11.50;;;;;;;2.66;74.69;100603.42;1760013;81;21144;-73
2021/04/03 05:10:28;;;;;;;42.40;16.37;;;;;;;2.80;74.79;100608.49;1760110;81;21183;-74
2021/04/03 05:13:00;;;;;;;32.30;14.53;;;;;;;3.45;74.94;100608.70;1760136;81;21116;-74
2021/04/03 05:15:26;;;;;;;30.62;14.25;;;;;;;4.16;74.89;100617.98;1740825;82;21185;-74
2021/04/03 05:17:52;;;;;;;29.30;12.47;;;;;;;4.77;74.79;100611.17;1760200;81;21209;-74
2021/04/03 05:20:19;;;;;;;27.32;14.68;;;;;;;5.21;74.57;100625.92;1759889;81;21206;-74
2021/04/03 05:22:46;;;;;;;32.85;15.13;;;;;;;5.63;74.40;100626.73;1740653;82;21674;-74
2021/04/03 05:25:12;;;;;;;28.95;14.93;;;;;;;6.03;74.13;100638.17;1740425;82;21597;-74
2021/04/03 05:27:40;;;;;;;30.40;15.78;;;;;;;6.31;73.83;100643.19;1760250;81;21143;-74
2021/04/03 05:30:07;;;;;;;26.93;13.30;;;;;;;6.60;73.66;100643.22;1760069;81;21272;-75
2021/04/03 05:32:34;;;;;;;27.70;11.80;;;;;;;6.77;73.26;100642.05;1740819;82;21148;-75
2021/04/03 05:35:00;;;;;;;26.85;10.80;;;;;;;6.73;72.70;100635.83;1740760;82;21578;-75
2021/04/03 05:37:26;;;;;;;18.52;9.65;;;;;;;6.59;72.36;100638.41;1738701;82;21163;-75
2021/04/03 05:39:53;;;;;;;21.30;9.23;;;;;;;6.18;72.33;100641.28;1752295;81;21127;-75
2021/04/03 05:42:20;;;;;;;22.05;10.70;;;;;;;5.92;72.45;100636.95;1735628;82;21204;-75
2021/04/03 05:44:47;;;;;;;19.35;9.13;;;;;;;5.84;72.49;100647.36;1769556;81;21169;-75
2021/04/03 05:47:13;;;;;;;20.62;9.68;;;;;;;5.72;72.56;100652.38;1741543;81;21108;-74
2021/04/03 05:49:41;;;;;;;22.80;11.10;;;;;;;5.49;72.58;100663.59;1769559;81;21565;-74
2021/04/03 05:52:08;;;;;;;19.80;10.23;;;;;;;5.21;72.58;100655.00;1768683;81;21161;-74
2021/04/03 05:54:36;;;;;;;20.10;10.25;;;;;;;4.97;72.56;100664.52;1769784;81;21257;-75
2021/04/03 05:57:04;;;;;;;21.48;10.00;;;;;;;4.78;72.55;100653.80;1769730;81;21124;-74
2021/04/03 05:59:31;;;;;;;24.27;10.85;;;;;;;4.51;72.52;100653.77;1769602;81;21160;-74
2021/04/03 06:01:57;;;;;;;23.65;10.55;;;;;;;4.39;72.50;100649.50;1769726;81;21177;-74
2021/04/03 06:04:23;;;;;;;21.33;10.40;;;;;;;4.32;72.49;100658.88;1769582;81;21160;-74
2021/04/03 06:06:49;;;;;;;22.17;10.15;;;;;;;4.26;72.45;100656.72;1769404;81;21212;-74
2021/04/03 06:09:18;;;;;;;22.32;9.25;;;;;;;4.19;72.50;100660.80;1769682;81;21164;-74
2021/04/03 06:11:45;;;;;;;19.07;8.85;;;;;;;4.09;72.51;100665.14;1768819;81;21575;-74
2021/04/03 06:14:12;;;;;;;27.98;10.60;;;;;;;4.03;72.56;100669.59;1769782;81;21590;-74
2021/04/03 06:16:39;;;;;;;28.20;11.08;;;;;;;4.07;72.63;100669.72;1769484;81;21597;-74
2021/04/03 06:19:13;;;;;;;27.87;11.60;;;;;;;4.16;72.67;100679.53;1769868;81;21256;-74
2021/04/03 06:21:42;;;;;;;32.83;12.45;;;;;;;4.32;72.75;100677.36;1761238;81;21704;-75
2021/04/03 06:24:28;;;;;;;29.87;13.65;;;;;;;4.51;72.82;100685.45;1761229;81;21112;-75
2021/04/03 06:27:08;;;;;;;24.47;12.45;;;;;;;4.62;72.88;100698.27;1734217;81;21137;-75
2021/04/03 06:29:47;;;;;;;;;;;;;;;4.56;72.94;100696.98;1699569;84;21600;-75
2021/04/03 06:32:35;;;;;;;25.97;13.32;;;;;;;4.37;73.02;100700.73;1755217;80;23376;-75
2021/04/03 06:35:01;;;;;;;58.85;19.48;;;;;;;4.19;73.10;100710.11;1760217;81;21168;-75
2021/04/03 06:37:33;;;;;;;41.18;17.02;;;;;;;4.24;73.16;100715.88;1760498;81;21302;-75
2021/04/03 06:40:10;;;;;;;32.17;14.15;;;;;;;4.25;73.13;100713.12;1748476;80;21193;-75
2021/04/03 06:42:45;;;;;;;26.42;15.23;;;;;;;4.29;73.20;100719.81;1771036;80;21157;-74
2021/04/03 06:45:32;;;;;;;25.52;12.18;;;;;;;4.31;73.24;100721.87;1741811;80;21255;-74
2021/04/03 06:48:02;;;;;;;27.20;13.22;;;;;;;4.31;73.26;100721.87;1765333;80;21215;-75
2021/04/03 06:50:31;;;;;;;24.02;12.20;;;;;;;4.39;73.29;100728.71;1768086;80;21179;-74
2021/04/03 06:52:57;;;;;;;22.17;10.95;;;;;;;4.46;73.28;100725.94;1761671;80;21185;-74
2021/04/03 06:55:24;;;;;;;32.00;16.32;;;;;;;4.57;73.27;100725.55;1772571;80;21156;-74
2021/04/03 07:00:37;;;;;;;33.00;13.30;;;;;;;4.93;73.19;100735.75;1805888;79;23239;-75
2021/04/03 07:03:18;;;;;;;27.93;12.80;;;;;;;5.26;73.08;100743.56;1783850;79;21120;-75
2021/04/03 07:05:45;;;;;;;23.77;12.73;;;;;;;5.83;72.96;100739.62;1810395;78;21202;-75
2021/04/03 07:08:11;;;;;;;26.82;12.20;;;;;;;6.23;72.74;100737.87;1790882;79;21207;-74
2021/04/03 07:10:38;;;;;;;24.92;11.48;;;;;;;6.25;72.65;100739.91;1779435;78;21180;-75
2021/04/03 07:13:06;;;;;;;24.98;13.22;;;;;;;6.13;72.62;100748.91;1773478;79;21575;-75
2021/04/03 07:15:33;;;;;;;23.42;12.82;;;;;;;6.13;72.52;100752.88;1758863;79;21147;-75
2021/04/03 07:18:00;;;;;;;28.87;12.23;;;;;;;6.14;72.30;100754.56;1764058;80;21191;-75
2021/04/03 07:20:28;;;;;;;31.45;17.00;;;;;;;6.09;72.18;100754.63;1786221;80;21195;-75
2021/04/03 07:23:08;;;;;;;20.80;10.65;;;;;;;6.08;72.07;100754.27;1793160;80;21141;-74
2021/04/03 07:25:37;;;;;;;20.70;11.88;;;;;;;6.16;71.95;100749.96;1792523;80;21203;-75
2021/04/03 07:28:04;;;;;;;26.37;14.05;;;;;;;6.24;71.81;100758.09;1770873;80;21159;-75
2021/04/03 07:30:40;;;;;;;19.95;9.60;;;;;;;6.22;71.57;100757.40;1779120;80;21605;-75
2021/04/03 07:33:21;;;;;;;23.10;11.90;;;;;;;6.27;71.49;100753.84;1758376;81;21207;-75
2021/04/03 07:35:56;;;;;;;24.35;10.75;;;;;;;6.33;71.37;100762.58;1782503;80;21147;-75
2021/04/03 07:38:31;;;;;;;18.40;9.53;;;;;;;6.50;71.23;100761.12;1773809;80;21195;-75
2021/04/03 07:40:59;;;;;;;16.93;9.70;;;;;;;6.76;71.10;100764.09;1727059;80;21973;-76
2021/04/03 07:43:40;;;;;;;14.47;9.35;;;;;;;6.90;70.89;100770.33;1755640;80;21204;-76
2021/04/03 07:46:16;;;;;;;19.25;10.25;;;;;;;7.04;70.69;100769.44;1750934;81;21195;-76
2021/04/03 07:48:58;;;;;;;19.57;9.45;;;;;;;7.32;70.47;100770.42;1753365;81;21195;-76
2021/04/03 07:51:34;;;;;;;19.60;9.08;;;;;;;7.60;70.28;100769.25;1731601;82;21234;-76
2021/04/03 07:54:05;;;;;;;23.52;10.68;;;;;;;7.82;69.88;100770.23;1745390;81;21507;-76
2021/04/03 07:56:51;;;;;;;14.98;9.23;;;;;;;7.95;69.61;100772.11;1720740;82;22084;-76
2021/04/03 07:59:37;;;;;;;56.98;26.60;;;;;;;8.04;69.43;100779.20;1751881;81;21196;-76
2021/04/03 08:02:04;;;;;;;45.85;21.45;;;;;;;7.90;69.11;100782.31;1715651;83;21169;-76
2021/04/03 08:04:31;;;;;;;71.57;34.98;;;;;;;7.93;68.90;100788.66;1748237;81;21172;-76
2021/04/03 08:07:00;;;;;;;17.20;8.15;;;;;;;7.93;68.74;100793.48;1719413;82;21157;-76
2021/04/03 08:09:32;;;;;;;16.93;8.50;;;;;;;7.93;68.51;100793.48;1737113;82;21214;-76
2021/04/03 08:11:58;;;;;;;10.40;6.22;;;;;;;8.09;68.33;100794.23;1741244;82;21659;-75
2021/04/03 08:14:29;;;;;;;13.53;7.25;;;;;;;7.89;67.90;100793.91;1727392;81;21171;-76
2021/04/03 08:16:55;;;;;;;19.02;10.18;;;;;;;7.65;67.70;100792.20;1746130;81;21702;-76
2021/04/03 08:19:31;;;;;;;22.02;11.40;;;;;;;7.58;67.55;100805.69;1712972;82;21185;-75
2021/04/03 08:21:57;;;;;;;20.32;10.68;;;;;;;7.63;67.43;100807.45;1728918;82;21629;-75
2021/04/03 08:24:23;;;;;;;14.70;8.30;;;;;;;7.57;67.25;100807.98;1716550;83;21194;-75
2021/04/03 08:26:51;;;;;;;16.15;7.25;;;;;;;7.47;66.99;100813.30;1721623;83;21235;-75
2021/04/03 08:29:36;;;;;;;9.15;6.08;;;;;;;7.42;66.90;100812.38;1753086;81;21625;-75
2021/04/03 08:32:04;;;;;;;14.40;7.47;;;;;;;7.47;66.73;100819.45;1739616;81;21123;-75
2021/04/03 08:34:30;;;;;;;14.63;6.67;;;;;;;7.62;66.50;100811.06;1747685;81;22176;-75
2021/04/03 08:36:56;;;;;;;13.43;6.05;;;;;;;7.84;66.37;100811.61;1748284;81;21163;-75
2021/04/03 08:39:25;;;;;;;10.15;5.50;;;;;;;8.34;66.28;100812.67;1738604;81;21132;-76
2021/04/03 08:41:55;;;;;;;10.82;6.15;;;;;;;8.48;65.91;100809.06;1735053;82;21244;-76
2021/04/03 08:44:29;;;;;;;19.92;10.93;;;;;;;8.39;65.65;100805.96;1724700;81;21152;-75
2021/04/03 08:47:01;;;;;;;12.18;6.15;;;;;;;8.33;65.55;100804.38;1747736;82;21258;-75
2021/04/03 08:49:34;;;;;;;14.80;7.05;;;;;;;8.35;65.29;100806.39;1738290;81;21175;-76
2021/04/03 08:52:00;;;;;;;14.87;6.58;;;;;;;8.25;65.09;100801.09;1752501;81;21203;-76
2021/04/03 08:54:38;;;;;;;10.55;7.25;;;;;;;8.21;64.94;100807.66;1751923;80;21164;-76
2021/04/03 08:57:25;;;;;;;17.12;6.17;;;;;;;8.22;64.79;100810.67;1753708;81;21155;-75
2021/04/03 08:59:51;;;;;;;11.53;4.70;;;;;;;8.30;64.74;100808.14;1755221;80;21262;-75
2021/04/03 09:02:17;;;;;;;10.15;5.45;;;;;;;8.19;64.53;100813.63;1755097;80;21172;-75
2021/04/03 09:04:43;;;;;;;27.52;12.23;;;;;;;8.07;64.42;100819.23;1739519;81;21145;-75
2021/04/03 09:07:10;;;;;;;30.23;16.48;;;;;;;7.99;64.34;100824.77;1720986;82;21155;-76
2021/04/03 09:09:38;;;;;;;30.97;14.30;;;;;;;7.95;64.26;100826.03;1752933;81;21192;-75
2021/04/03 09:12:07;;;;;;;14.47;6.95;;;;;;;7.92;64.23;100828.13;1761320;80;21199;-76
2021/04/03 09:14:41;;;;;;;18.10;10.23;;;;;;;7.84;64.17;100827.55;1750198;81;21156;-76
2021/04/03 09:17:23;;;;;;;23.07;8.95;;;;;;;7.78;64.19;100825.92;1763241;80;21163;-76
2021/04/03 09:19:51;;;;;;;13.70;6.35;;;;;;;7.98;64.21;100815.64;1743400;80;21603;-75
2021/04/03 09:22:19;;;;;;;15.53;7.62;;;;;;;8.22;64.11;100817.80;1753256;80;21151;-76
2021/04/03 09:24:47;;;;;;;15.30;8.28;;;;;;;8.36;64.04;100816.05;1747908;81;22157;-76
2021/04/03 09:27:20;;;;;;;11.03;6.08;;;;;;;8.73;63.99;100810.69;1749564;81;21152;-76
2021/04/03 09:32:46;;;;;;;10.88;5.42;;;;;;;9.77;63.66;100814.08;1827988;77;21944;-75
2021/04/03 09:35:27;;;;;;;8.15;4.60;;;;;;;9.76;63.34;100812.40;1793360;78;21615;-75
2021/04/03 09:38:02;;;;;;;11.65;4.83;;;;;;;9.70;63.10;100807.70;1820566;78;21208;-77
2021/04/03 09:40:44;;;;;;;10.58;4.05;;;;;;;9.62;62.89;100813.78;1816303;78;21167;-77
2021/04/03 09:43:14;;;;;;;10.58;5.30;;;;;;;9.36;62.73;100816.37;1795041;78;22042;-77
2021/04/03 09:45:41;;;;;;;13.93;5.60;;;;;;;9.07;62.60;100815.77;1790741;80;21580;-76
2021/04/03 09:48:10;;;;;;;17.80;9.15;;;;;;;8.73;62.53;100818.66;1792885;78;21207;-77
2021/04/03 09:50:38;;;;;;;25.45;14.30;;;;;;;8.29;62.45;100830.41;1755656;81;21147;-77
2021/04/03 09:53:09;;;;;;;29.65;16.23;;;;;;;7.62;62.58;100842.92;1756446;80;21044;-77
2021/04/03 09:55:35;;;;;;;63.25;27.10;;;;;;;6.84;62.88;100861.02;1738320;81;21154;-77
2021/04/03 09:58:01;;;;;;;32.93;15.85;;;;;;;6.32;63.33;100870.84;1723319;83;21203;-77
2021/04/03 10:00:28;;;;;;;18.92;10.03;;;;;;;5.87;63.83;100870.75;1727845;81;21196;-77
2021/04/03 10:02:54;;;;;;;12.45;5.67;;;;;;;5.24;64.31;100889.57;1750197;81;21259;-76
2021/04/03 10:05:21;;;;;;;15.68;6.97;;;;;;;4.76;64.73;100888.20;1755199;81;21203;-77
2021/04/03 10:07:47;;;;;;;9.18;5.12;;;;;;;4.38;65.18;100881.48;1753888;81;21179;-77
2021/04/03 10:10:13;;;;;;;12.10;5.70;;;;;;;4.15;65.55;100887.66;1786991;80;21140;-77
2021/04/03 10:12:40;;;;;;;23.83;10.40;;;;;;;4.02;65.90;100885.60;1787095;80;21115;-77
2021/04/03 10:15:07;;;;;;;12.28;6.10;;;;;;;3.97;66.22;100883.81;1755793;81;21265;-76
2021/04/03 10:17:34;;;;;;;13.03;7.42;;;;;;;4.00;66.47;100882.25;1756985;79;21145;-76
2021/04/03 10:20:01;;;;;;;17.67;9.13;;;;;;;4.07;66.71;100872.91;1754682;81;21163;-76
2021/04/03 10:22:27;;;;;;;12.15;5.53;;;;;;;4.13;66.86;100867.16;1737821;81;21675;-76
2021/04/03 10:24:54;;;;;;;28.92;14.28;;;;;;;4.27;67.04;100864.30;1769400;80;21185;-76
2021/04/03 10:27:21;;;;;;;22.25;8.90;;;;;;;4.37;67.21;100870.55;1781655;78;21120;-76
2021/04/03 10:29:47;;;;;;;18.05;7.00;;;;;;;4.51;67.36;100876.08;1766589;80;21170;-76
2021/04/03 10:32:13;;;;;;;16.73;6.80;;;;;;;4.64;67.56;100894.47;1734307;81;21166;-76
2021/04/03 10:34:40;;;;;;;10.95;7.08;;;;;;;4.74;67.79;100883.53;1700119;84;21149;-76
2021/04/03 10:37:06;;;;;;;16.07;6.08;;;;;;;4.90;67.99;100887.47;1729080;82;21155;-77
2021/04/03 10:39:32;;;;;;;7.72;4.22;;;;;;;5.10;68.19;100880.62;1729272;81;21249;-77
2021/04/03 10:41:58;;;;;;;6.25;3.47;;;;;;;5.34;68.34;100882.60;1727643;83;21185;-77
2021/04/03 10:44:25;;;;;;;14.98;6.90;;;;;;;5.63;68.49;100889.96;1727342;82;21120;-76
2021/04/03 10:46:53;;;;;;;20.75;9.93;;;;;;;5.91;68.63;100888.88;1759457;81;21149;-77
2021/04/03 10:49:21;;;;;;;23.07;10.65;;;;;;;6.15;68.72;100884.67;1751870;81;21238;-77
2021/04/03 10:51:48;;;;;;;20.65;8.43;;;;;;;6.34;68.80;100891.40;1744882;81;22123;-74
2021/04/03 10:54:17;;;;;;;17.45;7.80;;;;;;;6.45;68.89;100879.41;1758860;81;21188;-75
2021/04/03 10:56:43;;;;;;;18.37;8.70;;;;;;;6.52;68.94;100881.88;1759064;81;21177;-75
2021/04/03 10:59:09;;;;;;;11.12;5.72;;;;;;;6.70;69.05;100882.58;1759055;81;21174;-75
2021/04/03 11:01:35;;;;;;;12.37;6.70;;;;;;;6.86;69.06;100876.31;1759284;81;21173;-75
2021/04/03 11:04:02;;;;;;;13.48;8.23;;;;;;;7.08;69.14;100870.77;1752094;81;21579;-74
2021/04/03 11:06:28;;;;;;;22.25;11.57;;;;;;;7.19;69.15;100865.36;1741074;81;21600;-77
2021/04/03 11:08:55;;;;;;;14.98;9.38;;;;;;;7.26;69.16;100866.48;1758502;81;21159;-77
2021/04/03 11:11:21;;;;;;;16.20;9.65;;;;;;;7.29;69.20;100870.67;1758242;81;21148;-77
2021/04/03 11:13:47;;;;;;;13.08;8.35;;;;;;;7.46;69.34;100861.55;1751283;81;21154;-77
2021/04/03 11:16:13;;;;;;;23.18;12.88;;;;;;;7.51;69.29;100859.33;1743062;81;21235;-77
2021/04/03 11:18:40;;;;;;;15.75;8.40;;;;;;;7.36;69.17;100862.03;1736299;81;21593;-75
2021/04/03 11:21:06;;;;;;;18.73;10.35;;;;;;;7.35;69.19;100857.69;1745889;81;21142;-75
2021/04/03 11:23:32;;;;;;;59.75;28.95;;;;;;;7.35;69.14;100855.04;1757516;81;21128;-75
2021/04/03 11:25:59;;;;;;;18.12;10.40;;;;;;;7.35;69.08;100852.39;1758499;81;21204;-75
2021/04/03 11:28:25;;;;;;;16.62;7.62;;;;;;;7.39;69.03;100853.79;1758266;81;21200;-75
2021/04/03 11:30:52;;;;;;;13.48;8.03;;;;;;;7.53;68.98;100849.88;1758251;81;21179;-74
2021/04/03 11:33:19;;;;;;;13.75;7.78;;;;;;;7.65;68.88;100858.55;1758253;81;21167;-77
2021/04/03 11:35:46;;;;;;;18.57;8.98;;;;;;;7.83;68.79;100863.03;1757843;81;22369;-77
2021/04/03 11:38:12;;;;;;;10.48;5.80;;;;;;;7.78;68.61;100856.45;1758432;81;21128;-77